sensor_id;sensor_type;location;lat;lon;timestamp;pressure;altitude;pressure_sealevel;temperature;humidity
55763;BME280;42162;51.958;5.426;2023-09-12T00:01:13;101324.34;;;23.60;68.75
55763;BME280;42162;51.958;5.426;2023-09-12T00:03:40;101312.19;;;23.57;69.03
55763;BME280;42162;51.958;5.426;2023-09-12T00:06:07;101326.38;;;23.56;69.08
55763;BME280;42162;51.958;5.426;2023-09-12T00:08:34;101316.00;;;23.53;69.32
55763;BME280;42162;51.958;5.426;2023-09-12T00:11:09;101319.81;;;23.49;69.08
55763;BME280;42162;51.958;5.426;2023-09-12T00:13:39;101311.13;;;23.47;69.17
55763;BME280;42162;51.958;5.426;2023-09-12T00:16:07;101323.53;;;23.47;69.41
55763;BME280;42162;51.958;5.426;2023-09-12T00:18:38;101320.06;;;23.46;68.90
55763;BME280;42162;51.958;5.426;2023-09-12T00:21:06;101317.50;;;23.45;68.63
55763;BME280;42162;51.958;5.426;2023-09-12T00:23:33;101325.66;;;23.41;68.60
55763;BME280;42162;51.958;5.426;2023-09-12T00:26:00;101316.13;;;23.39;68.67
55763;BME280;42162;51.958;5.426;2023-09-12T00:28:27;101310.22;;;23.35;68.70
55763;BME280;42162;51.958;5.426;2023-09-12T00:30:54;101310.31;;;23.34;68.46
55763;BME280;42162;51.958;5.426;2023-09-12T00:33:22;101307.78;;;23.32;68.69
55763;BME280;42162;51.958;5.426;2023-09-12T00:35:50;101304.28;;;23.32;68.67
55763;BME280;42162;51.958;5.426;2023-09-12T00:38:18;101309.06;;;23.26;68.37
55763;BME280;42162;51.958;5.426;2023-09-12T00:40:45;101304.38;;;23.17;68.85
55763;BME280;42162;51.958;5.426;2023-09-12T00:43:12;101311.16;;;23.08;68.88
55763;BME280;42162;51.958;5.426;2023-09-12T00:45:40;101314.47;;;22.99;68.92
55763;BME280;42162;51.958;5.426;2023-09-12T00:48:08;101319.66;;;22.88;69.11
55763;BME280;42162;51.958;5.426;2023-09-12T00:50:36;101315.00;;;22.78;69.19
55763;BME280;42162;51.958;5.426;2023-09-12T00:53:05;101318.50;;;22.66;69.72
55763;BME280;42162;51.958;5.426;2023-09-12T00:55:34;101320.28;;;22.53;69.65
55763;BME280;42162;51.958;5.426;2023-09-12T00:58:03;101318.69;;;22.50;70.45
55763;BME280;42162;51.958;5.426;2023-09-12T01:00:30;101317.31;;;22.57;69.80
55763;BME280;42162;51.958;5.426;2023-09-12T01:02:58;101308.22;;;22.61;69.86
55763;BME280;42162;51.958;5.426;2023-09-12T01:08:35;101316.78;;;22.65;69.76
55763;BME280;42162;51.958;5.426;2023-09-12T01:11:05;101324.09;;;22.61;69.62
55763;BME280;42162;51.958;5.426;2023-09-12T01:13:32;101323.34;;;22.59;69.71
55763;BME280;42162;51.958;5.426;2023-09-12T01:15:59;101331.59;;;22.55;69.89
55763;BME280;42162;51.958;5.426;2023-09-12T01:18:26;101330.09;;;22.50;70.10
55763;BME280;42162;51.958;5.426;2023-09-12T01:26:48;101316.41;;;22.31;70.40
55763;BME280;42162;51.958;5.426;2023-09-12T01:29:16;101322.00;;;22.26;70.82
55763;BME280;42162;51.958;5.426;2023-09-12T01:31:46;101316.72;;;22.26;70.89
55763;BME280;42162;51.958;5.426;2023-09-12T01:34:14;101313.63;;;22.32;70.34
55763;BME280;42162;51.958;5.426;2023-09-12T01:36:41;101320.53;;;22.35;70.47
55763;BME280;42162;51.958;5.426;2023-09-12T01:39:08;101315.25;;;22.35;70.33
55763;BME280;42162;51.958;5.426;2023-09-12T01:41:39;101302.84;;;22.35;70.52
55763;BME280;42162;51.958;5.426;2023-09-12T01:44:08;101304.56;;;22.37;70.58
55763;BME280;42162;51.958;5.426;2023-09-12T01:46:37;101303.72;;;22.36;70.15
55763;BME280;42162;51.958;5.426;2023-09-12T01:49:08;101301.06;;;22.36;70.19
55763;BME280;42162;51.958;5.426;2023-09-12T01:51:36;101307.09;;;22.38;70.61
55763;BME280;42162;51.958;5.426;2023-09-12T01:54:04;101304.44;;;22.38;70.78
55763;BME280;42162;51.958;5.426;2023-09-12T01:56:32;101311.75;;;22.34;70.20
55763;BME280;42162;51.958;5.426;2023-09-12T01:59:00;101298.38;;;22.23;70.19
55763;BME280;42162;51.958;5.426;2023-09-12T02:01:28;101301.66;;;22.14;70.50
55763;BME280;42162;51.958;5.426;2023-09-12T02:03:57;101295.09;;;22.07;70.67
55763;BME280;42162;51.958;5.426;2023-09-12T02:06:24;101289.88;;;22.05;70.72
55763;BME280;42162;51.958;5.426;2023-09-12T02:08:52;101288.19;;;22.04;71.20
55763;BME280;42162;51.958;5.426;2023-09-12T02:11:18;101293.56;;;22.02;70.67
55763;BME280;42162;51.958;5.426;2023-09-12T02:13:45;101297.34;;;21.98;70.37
55763;BME280;42162;51.958;5.426;2023-09-12T02:16:13;101282.75;;;21.93;70.50
55763;BME280;42162;51.958;5.426;2023-09-12T02:18:40;101289.19;;;21.88;70.15
55763;BME280;42162;51.958;5.426;2023-09-12T02:21:07;101280.63;;;21.85;70.45
55763;BME280;42162;51.958;5.426;2023-09-12T02:23:34;101288.44;;;21.86;70.62
55763;BME280;42162;51.958;5.426;2023-09-12T02:26:01;101287.19;;;21.92;70.87
55763;BME280;42162;51.958;5.426;2023-09-12T02:28:29;101287.66;;;21.99;70.79
55763;BME280;42162;51.958;5.426;2023-09-12T02:30:56;101286.59;;;22.01;70.42
55763;BME280;42162;51.958;5.426;2023-09-12T02:33:24;101288.72;;;21.96;70.26
55763;BME280;42162;51.958;5.426;2023-09-12T02:35:51;101291.22;;;21.85;70.35
55763;BME280;42162;51.958;5.426;2023-09-12T02:38:18;101300.38;;;21.79;70.50
55763;BME280;42162;51.958;5.426;2023-09-12T02:40:45;101294.41;;;21.76;70.72
55763;BME280;42162;51.958;5.426;2023-09-12T02:43:12;101295.03;;;21.66;70.96
55763;BME280;42162;51.958;5.426;2023-09-12T02:45:39;101295.47;;;21.58;71.09
55763;BME280;42162;51.958;5.426;2023-09-12T02:48:06;101298.63;;;21.51;70.94
55763;BME280;42162;51.958;5.426;2023-09-12T02:50:36;101303.66;;;21.41;70.95
55763;BME280;42162;51.958;5.426;2023-09-12T02:53:03;101303.81;;;21.38;70.89
55763;BME280;42162;51.958;5.426;2023-09-12T02:55:30;101299.41;;;21.38;71.11
55763;BME280;42162;51.958;5.426;2023-09-12T02:57:57;101308.81;;;21.42;71.36
55763;BME280;42162;51.958;5.426;2023-09-12T03:00:24;101304.41;;;21.43;71.10
55763;BME280;42162;51.958;5.426;2023-09-12T03:02:51;101306.75;;;21.48;71.59
55763;BME280;42162;51.958;5.426;2023-09-12T03:05:19;101299.47;;;21.51;71.10
55763;BME280;42162;51.958;5.426;2023-09-12T03:07:46;101305.41;;;21.55;70.83
55763;BME280;42162;51.958;5.426;2023-09-12T03:10:13;101303.41;;;21.58;71.22
55763;BME280;42162;51.958;5.426;2023-09-12T03:12:40;101303.41;;;21.58;71.40
55763;BME280;42162;51.958;5.426;2023-09-12T03:15:08;101292.94;;;21.57;71.16
55763;BME280;42162;51.958;5.426;2023-09-12T03:17:37;101295.78;;;21.54;71.11
55763;BME280;42162;51.958;5.426;2023-09-12T03:20:05;101312.56;;;21.53;70.98
55763;BME280;42162;51.958;5.426;2023-09-12T03:22:36;101311.75;;;21.52;71.08
55763;BME280;42162;51.958;5.426;2023-09-12T03:25:06;101309.47;;;21.46;70.49
55763;BME280;42162;51.958;5.426;2023-09-12T03:27:33;101304.00;;;21.35;70.88
55763;BME280;42162;51.958;5.426;2023-09-12T03:30:00;101303.38;;;21.31;70.85
55763;BME280;42162;51.958;5.426;2023-09-12T03:32:27;101291.84;;;21.32;70.95
55763;BME280;42162;51.958;5.426;2023-09-12T03:34:54;101292.50;;;21.36;71.03
55763;BME280;42162;51.958;5.426;2023-09-12T03:37:21;101292.31;;;21.39;71.37
55763;BME280;42162;51.958;5.426;2023-09-12T03:39:48;101284.28;;;21.40;71.38
55763;BME280;42162;51.958;5.426;2023-09-12T03:42:16;101285.97;;;21.41;71.31
55763;BME280;42162;51.958;5.426;2023-09-12T03:44:43;101288.63;;;21.41;71.73
55763;BME280;42162;51.958;5.426;2023-09-12T03:47:10;101287.69;;;21.42;71.78
55763;BME280;42162;51.958;5.426;2023-09-12T03:49:37;101289.69;;;21.39;71.45
55763;BME280;42162;51.958;5.426;2023-09-12T03:52:04;101285.63;;;21.33;71.64
55763;BME280;42162;51.958;5.426;2023-09-12T03:54:32;101291.31;;;21.27;71.71
55763;BME280;42162;51.958;5.426;2023-09-12T03:56:59;101280.00;;;21.25;72.22
55763;BME280;42162;51.958;5.426;2023-09-12T03:59:27;101293.38;;;21.22;72.00
55763;BME280;42162;51.958;5.426;2023-09-12T04:01:54;101292.53;;;21.21;71.96
55763;BME280;42162;51.958;5.426;2023-09-12T04:04:21;101289.91;;;21.21;72.01
55763;BME280;42162;51.958;5.426;2023-09-12T04:06:48;101293.19;;;21.25;72.49
55763;BME280;42162;51.958;5.426;2023-09-12T04:09:15;101282.34;;;21.30;72.44
55763;BME280;42162;51.958;5.426;2023-09-12T04:11:43;101301.28;;;21.36;72.05
55763;BME280;42162;51.958;5.426;2023-09-12T04:14:14;101289.69;;;21.39;72.43
55763;BME280;42162;51.958;5.426;2023-09-12T04:16:41;101276.34;;;21.40;72.54
55763;BME280;42162;51.958;5.426;2023-09-12T04:19:08;101278.28;;;21.38;72.30
55763;BME280;42162;51.958;5.426;2023-09-12T04:21:37;101284.50;;;21.37;72.85
55763;BME280;42162;51.958;5.426;2023-09-12T04:24:05;101289.84;;;21.36;72.75
55763;BME280;42162;51.958;5.426;2023-09-12T04:26:32;101283.63;;;21.37;72.80
55763;BME280;42162;51.958;5.426;2023-09-12T04:28:59;101279.97;;;21.39;73.08
55763;BME280;42162;51.958;5.426;2023-09-12T04:31:26;101266.47;;;21.44;72.88
55763;BME280;42162;51.958;5.426;2023-09-12T04:33:54;101270.81;;;21.45;72.69
55763;BME280;42162;51.958;5.426;2023-09-12T04:36:21;101263.06;;;21.42;72.31
55763;BME280;42162;51.958;5.426;2023-09-12T04:38:48;101256.84;;;21.43;72.50
55763;BME280;42162;51.958;5.426;2023-09-12T04:41:15;101263.06;;;21.42;72.40
55763;BME280;42162;51.958;5.426;2023-09-12T04:43:44;101278.28;;;21.38;72.71
55763;BME280;42162;51.958;5.426;2023-09-12T04:46:11;101275.63;;;21.38;72.46
55763;BME280;42162;51.958;5.426;2023-09-12T04:48:39;101271.28;;;21.37;72.65
55763;BME280;42162;51.958;5.426;2023-09-12T04:51:06;101282.88;;;21.35;72.48
55763;BME280;42162;51.958;5.426;2023-09-12T04:53:34;101282.34;;;21.30;72.78
55763;BME280;42162;51.958;5.426;2023-09-12T04:56:03;101284.03;;;21.16;72.53
55763;BME280;42162;51.958;5.426;2023-09-12T04:58:31;101281.88;;;21.08;73.01
55763;BME280;42162;51.958;5.426;2023-09-12T05:00:58;101281.50;;;21.00;73.54
55763;BME280;42162;51.958;5.426;2023-09-12T05:03:25;101281.78;;;20.95;73.67
55763;BME280;42162;51.958;5.426;2023-09-12T05:05:53;101280.38;;;20.90;74.19
55763;BME280;42162;51.958;5.426;2023-09-12T05:08:20;101282.25;;;20.88;73.68
55763;BME280;42162;51.958;5.426;2023-09-12T05:10:48;101287.81;;;20.83;73.74
55763;BME280;42162;51.958;5.426;2023-09-12T05:13:15;101284.16;;;20.86;74.04
55763;BME280;42162;51.958;5.426;2023-09-12T05:15:43;101276.69;;;20.92;73.83
55763;BME280;42162;51.958;5.426;2023-09-12T05:18:10;101283.28;;;21.00;73.58
55763;BME280;42162;51.958;5.426;2023-09-12T05:20:40;101276.22;;;21.00;73.29
55763;BME280;42162;51.958;5.426;2023-09-12T05:23:11;101284.16;;;21.00;73.19
55763;BME280;42162;51.958;5.426;2023-09-12T05:25:38;101282.44;;;20.99;73.32
55763;BME280;42162;51.958;5.426;2023-09-12T05:28:05;101291.22;;;21.00;73.16
55763;BME280;42162;51.958;5.426;2023-09-12T05:30:33;101285.19;;;20.98;73.26
55763;BME280;42162;51.958;5.426;2023-09-12T05:33:00;101282.75;;;20.94;73.44
55763;BME280;42162;51.958;5.426;2023-09-12T05:35:28;101289.53;;;20.84;73.94
55763;BME280;42162;51.958;5.426;2023-09-12T05:37:55;101282.81;;;20.78;74.00
55763;BME280;42162;51.958;5.426;2023-09-12T05:40:22;101286.72;;;20.71;74.31
55763;BME280;42162;51.958;5.426;2023-09-12T05:42:49;101283.16;;;20.72;74.02
55763;BME280;42162;51.958;5.426;2023-09-12T05:45:16;101292.50;;;20.63;74.21
55763;BME280;42162;51.958;5.426;2023-09-12T05:47:43;101288.50;;;20.56;74.05
55763;BME280;42162;51.958;5.426;2023-09-12T05:50:11;101294.00;;;20.53;74.17
55763;BME280;42162;51.958;5.426;2023-09-12T05:52:38;101298.41;;;20.53;74.29
55763;BME280;42162;51.958;5.426;2023-09-12T05:55:06;101286.25;;;20.50;74.43
55763;BME280;42162;51.958;5.426;2023-09-12T05:57:34;101295.38;;;20.44;74.32
55763;BME280;42162;51.958;5.426;2023-09-12T06:00:01;101293.09;;;20.38;74.28
55763;BME280;42162;51.958;5.426;2023-09-12T06:02:38;101299.56;;;20.32;74.73
55763;BME280;42162;51.958;5.426;2023-09-12T06:05:06;101295.09;;;20.18;74.87
55763;BME280;42162;51.958;5.426;2023-09-12T06:07:33;101304.88;;;20.16;75.39
55763;BME280;42162;51.958;5.426;2023-09-12T06:10:01;101309.31;;;20.16;75.60
55763;BME280;42162;51.958;5.426;2023-09-12T06:12:28;101317.50;;;20.11;75.67
55763;BME280;42162;51.958;5.426;2023-09-12T06:14:55;101319.53;;;20.06;75.67
55763;BME280;42162;51.958;5.426;2023-09-12T06:17:22;101320.47;;;20.05;76.20
55763;BME280;42162;51.958;5.426;2023-09-12T06:19:49;101313.16;;;20.10;76.28
55763;BME280;42162;51.958;5.426;2023-09-12T06:22:17;101318.00;;;20.18;75.98
55763;BME280;42162;51.958;5.426;2023-09-12T06:24:44;101320.28;;;20.24;76.25
55763;BME280;42162;51.958;5.426;2023-09-12T06:27:12;101319.66;;;20.35;76.22
55763;BME280;42162;51.958;5.426;2023-09-12T06:29:47;101323.53;;;20.44;75.91
55763;BME280;42162;51.958;5.426;2023-09-12T06:32:15;101322.31;;;20.49;76.10
55763;BME280;42162;51.958;5.426;2023-09-12T06:34:42;101321.97;;;20.56;76.25
55763;BME280;42162;51.958;5.426;2023-09-12T06:37:13;101312.84;;;20.61;75.98
55763;BME280;42162;51.958;5.426;2023-09-12T06:39:40;101316.81;;;20.69;75.59
55763;BME280;42162;51.958;5.426;2023-09-12T06:42:08;101320.22;;;20.71;75.57
55763;BME280;42162;51.958;5.426;2023-09-12T06:44:35;101327.47;;;20.67;75.67
55763;BME280;42162;51.958;5.426;2023-09-12T06:47:05;101328.97;;;20.71;75.97
55763;BME280;42162;51.958;5.426;2023-09-12T06:49:32;101318.19;;;20.76;75.97
55763;BME280;42162;51.958;5.426;2023-09-12T06:52:01;101324.88;;;20.82;75.68
55763;BME280;42162;51.958;5.426;2023-09-12T06:54:29;101322.16;;;20.83;75.35
55763;BME280;42162;51.958;5.426;2023-09-12T06:56:56;101331.84;;;20.83;75.92
55763;BME280;42162;51.958;5.426;2023-09-12T06:59:23;101324.31;;;20.76;75.88
55763;BME280;42162;51.958;5.426;2023-09-12T07:01:50;101326.94;;;20.76;75.97
55763;BME280;42162;51.958;5.426;2023-09-12T07:04:17;101326.66;;;20.81;76.28
55763;BME280;42162;51.958;5.426;2023-09-12T07:06:44;101316.75;;;20.85;76.38
55763;BME280;42162;51.958;5.426;2023-09-12T07:09:12;101314.72;;;20.90;75.90
55763;BME280;42162;51.958;5.426;2023-09-12T07:11:41;101311.88;;;20.93;76.11
55763;BME280;42162;51.958;5.426;2023-09-12T07:14:09;101312.44;;;20.98;76.29
55763;BME280;42162;51.958;5.426;2023-09-12T07:16:37;101309.63;;;21.01;75.83
55763;BME280;42162;51.958;5.426;2023-09-12T07:19:04;101315.66;;;21.03;75.91
55763;BME280;42162;51.958;5.426;2023-09-12T07:21:32;101320.72;;;21.06;75.87
55763;BME280;42162;51.958;5.426;2023-09-12T07:23:59;101324.25;;;21.07;75.69
55763;BME280;42162;51.958;5.426;2023-09-12T07:26:26;101316.31;;;21.07;75.89
55763;BME280;42162;51.958;5.426;2023-09-12T07:28:54;101318.84;;;21.08;75.78
55763;BME280;42162;51.958;5.426;2023-09-12T07:31:21;101316.88;;;21.12;75.80
55763;BME280;42162;51.958;5.426;2023-09-12T07:33:48;101324.72;;;21.14;75.92
55763;BME280;42162;51.958;5.426;2023-09-12T07:36:15;101324.31;;;21.20;75.68
55763;BME280;42162;51.958;5.426;2023-09-12T07:38:42;101339.69;;;21.27;75.55
55763;BME280;42162;51.958;5.426;2023-09-12T07:41:12;101343.47;;;21.38;75.82
55763;BME280;42162;51.958;5.426;2023-09-12T07:43:39;101341.09;;;21.48;75.20
55763;BME280;42162;51.958;5.426;2023-09-12T07:46:07;101339.88;;;21.68;75.09
55763;BME280;42162;51.958;5.426;2023-09-12T07:48:35;101333.63;;;22.24;74.24
55763;BME280;42162;51.958;5.426;2023-09-12T07:51:11;101333.00;;;23.12;72.67
55763;BME280;42162;51.958;5.426;2023-09-12T07:53:38;101337.38;;;24.00;70.18
55763;BME280;42162;51.958;5.426;2023-09-12T07:56:06;101343.22;;;24.77;67.76
55763;BME280;42162;51.958;5.426;2023-09-12T07:58:34;101345.31;;;25.41;66.00
55763;BME280;42162;51.958;5.426;2023-09-12T08:01:08;101349.88;;;25.95;64.80
55763;BME280;42162;51.958;5.426;2023-09-12T08:03:36;101342.06;;;26.47;63.78
55763;BME280;42162;51.958;5.426;2023-09-12T08:06:04;101351.88;;;26.89;62.72
55763;BME280;42162;51.958;5.426;2023-09-12T08:08:31;101354.84;;;27.26;62.03
55763;BME280;42162;51.958;5.426;2023-09-12T08:10:58;101360.47;;;27.23;61.21
55763;BME280;42162;51.958;5.426;2023-09-12T08:13:26;101365.03;;;27.12;61.14
55763;BME280;42162;51.958;5.426;2023-09-12T08:15:55;101370.88;;;26.74;62.34
55763;BME280;42162;51.958;5.426;2023-09-12T08:18:28;101370.47;;;26.58;62.39
55763;BME280;42162;51.958;5.426;2023-09-12T08:20:56;101375.00;;;26.25;63.29
55763;BME280;42162;51.958;5.426;2023-09-12T08:23:23;101372.56;;;26.22;63.40
55763;BME280;42162;51.958;5.426;2023-09-12T08:25:50;101371.81;;;26.31;63.12
55763;BME280;42162;51.958;5.426;2023-09-12T08:28:18;101368.06;;;25.90;63.24
55763;BME280;42162;51.958;5.426;2023-09-12T08:30:45;101364.00;;;25.51;64.38
55763;BME280;42162;51.958;5.426;2023-09-12T08:33:13;101363.56;;;25.46;64.85
55763;BME280;42162;51.958;5.426;2023-09-12T08:35:40;101362.09;;;25.53;64.66
55763;BME280;42162;51.958;5.426;2023-09-12T08:38:07;101368.13;;;25.67;64.75
55763;BME280;42162;51.958;5.426;2023-09-12T08:40:35;101368.69;;;26.47;62.81
55763;BME280;42162;51.958;5.426;2023-09-12T08:43:02;101361.09;;;27.06;61.64
55763;BME280;42162;51.958;5.426;2023-09-12T08:45:33;101361.44;;;27.53;60.05
55763;BME280;42162;51.958;5.426;2023-09-12T08:48:03;101366.72;;;28.43;58.10
55763;BME280;42162;51.958;5.426;2023-09-12T08:50:31;101365.47;;;29.05;56.77
55763;BME280;42162;51.958;5.426;2023-09-12T08:53:00;101362.53;;;29.64;54.08
55763;BME280;42162;51.958;5.426;2023-09-12T08:55:35;101361.38;;;30.12;53.60
55763;BME280;42162;51.958;5.426;2023-09-12T08:58:04;101353.34;;;30.83;52.03
55763;BME280;42162;51.958;5.426;2023-09-12T09:00:33;101358.00;;;31.42;50.83
55763;BME280;42162;51.958;5.426;2023-09-12T09:03:01;101368.38;;;31.80;49.77
55763;BME280;42162;51.958;5.426;2023-09-12T09:05:29;101369.06;;;31.98;48.93
55763;BME280;42162;51.958;5.426;2023-09-12T09:07:58;101362.16;;;31.88;48.64
55763;BME280;42162;51.958;5.426;2023-09-12T09:10:25;101369.72;;;32.00;48.71
55763;BME280;42162;51.958;5.426;2023-09-12T09:13:17;101375.78;;;32.44;48.27
55763;BME280;42162;51.958;5.426;2023-09-12T09:15:44;101375.44;;;32.39;46.95
55763;BME280;42162;51.958;5.426;2023-09-12T09:18:11;101377.28;;;32.22;47.50
55763;BME280;42162;51.958;5.426;2023-09-12T09:20:40;101382.50;;;32.23;46.94
55763;BME280;42162;51.958;5.426;2023-09-12T09:23:09;101373.28;;;31.50;47.92
55763;BME280;42162;51.958;5.426;2023-09-12T09:25:42;101383.28;;;30.52;49.23
55763;BME280;42162;51.958;5.426;2023-09-12T09:28:17;101384.81;;;30.55;50.47
55763;BME280;42162;51.958;5.426;2023-09-12T09:30:46;101384.53;;;31.11;49.20
55763;BME280;42162;51.958;5.426;2023-09-12T09:33:14;101388.13;;;31.70;47.95
55763;BME280;42162;51.958;5.426;2023-09-12T09:35:42;101384.16;;;31.99;46.38
55763;BME280;42162;51.958;5.426;2023-09-12T09:38:09;101386.59;;;31.68;47.03
55763;BME280;42162;51.958;5.426;2023-09-12T09:40:36;101386.31;;;31.02;47.92
55763;BME280;42162;51.958;5.426;2023-09-12T09:43:03;101393.03;;;30.35;48.96
55763;BME280;42162;51.958;5.426;2023-09-12T09:45:31;101381.44;;;29.80;50.20
55763;BME280;42162;51.958;5.426;2023-09-12T09:48:05;101389.31;;;29.36;51.52
55763;BME280;42162;51.958;5.426;2023-09-12T09:50:34;101379.44;;;28.99;52.03
55763;BME280;42162;51.958;5.426;2023-09-12T09:53:04;101377.66;;;28.70;52.33
55763;BME280;42162;51.958;5.426;2023-09-12T09:55:35;101376.97;;;28.48;53.23
55763;BME280;42162;51.958;5.426;2023-09-12T09:58:05;101372.78;;;28.26;52.96
55763;BME280;42162;51.958;5.426;2023-09-12T10:00:37;101377.50;;;28.02;54.20
55763;BME280;42162;51.958;5.426;2023-09-12T10:03:05;101374.41;;;27.87;53.93
55763;BME280;42162;51.958;5.426;2023-09-12T10:05:37;101375.50;;;27.65;55.18
55763;BME280;42162;51.958;5.426;2023-09-12T10:08:06;101382.25;;;27.69;55.45
55763;BME280;42162;51.958;5.426;2023-09-12T10:10:38;101372.28;;;27.71;55.04
55763;BME280;42162;51.958;5.426;2023-09-12T10:13:05;101371.88;;;27.66;55.37
55763;BME280;42162;51.958;5.426;2023-09-12T10:15:34;101363.44;;;27.71;55.04
55763;BME280;42162;51.958;5.426;2023-09-12T10:18:09;101365.97;;;27.73;55.88
55763;BME280;42162;51.958;5.426;2023-09-12T10:20:55;101365.13;;;27.82;55.36
55763;BME280;42162;51.958;5.426;2023-09-12T10:23:37;101352.66;;;27.82;54.64
55763;BME280;42162;51.958;5.426;2023-09-12T10:26:13;101366.91;;;27.62;54.79
55763;BME280;42162;51.958;5.426;2023-09-12T10:28:41;101365.75;;;27.45;55.11
55763;BME280;42162;51.958;5.426;2023-09-12T10:31:11;101366.13;;;27.40;55.79
55763;BME280;42162;51.958;5.426;2023-09-12T10:33:39;101368.94;;;27.38;56.03
55763;BME280;42162;51.958;5.426;2023-09-12T10:36:08;101367.81;;;27.31;56.97
55763;BME280;42162;51.958;5.426;2023-09-12T10:38:41;101362.41;;;27.21;56.68
55763;BME280;42162;51.958;5.426;2023-09-12T10:41:14;101358.31;;;27.17;56.87
55763;BME280;42162;51.958;5.426;2023-09-12T10:43:44;101362.69;;;27.18;57.08
55763;BME280;42162;51.958;5.426;2023-09-12T10:46:16;101374.31;;;27.17;57.14
55763;BME280;42162;51.958;5.426;2023-09-12T10:48:44;101366.72;;;27.13;57.25
55763;BME280;42162;51.958;5.426;2023-09-12T10:51:12;101365.19;;;27.10;57.42
55763;BME280;42162;51.958;5.426;2023-09-12T10:53:47;101370.78;;;27.07;57.22
55763;BME280;42162;51.958;5.426;2023-09-12T10:56:20;101374.69;;;27.03;57.06
55763;BME280;42162;51.958;5.426;2023-09-12T11:01:32;101374.63;;;26.93;57.80
55763;BME280;42162;51.958;5.426;2023-09-12T11:06:47;101373.53;;;26.95;58.24
55763;BME280;42162;51.958;5.426;2023-09-12T11:09:23;101368.19;;;26.95;57.27
55763;BME280;42162;51.958;5.426;2023-09-12T11:14:20;101367.56;;;26.82;57.04
55763;BME280;42162;51.958;5.426;2023-09-12T11:17:20;101362.81;;;26.64;57.22
55763;BME280;42162;51.958;5.426;2023-09-12T11:19:50;101359.34;;;26.53;57.10
55763;BME280;42162;51.958;5.426;2023-09-12T11:22:28;101353.81;;;26.44;57.33
55763;BME280;42162;51.958;5.426;2023-09-12T11:24:55;101353.09;;;26.42;57.44
55763;BME280;42162;51.958;5.426;2023-09-12T11:27:25;101342.66;;;26.51;57.55
55763;BME280;42162;51.958;5.426;2023-09-12T11:30:06;101338.09;;;26.62;58.11
55763;BME280;42162;51.958;5.426;2023-09-12T11:32:35;101336.75;;;26.68;58.13
55763;BME280;42162;51.958;5.426;2023-09-12T11:35:07;101336.75;;;26.68;57.25
55763;BME280;42162;51.958;5.426;2023-09-12T11:37:35;101340.94;;;26.71;57.57
55763;BME280;42162;51.958;5.426;2023-09-12T11:42:41;101346.28;;;26.71;56.85
55763;BME280;42162;51.958;5.426;2023-09-12T11:45:19;101348.38;;;26.67;56.94
55763;BME280;42162;51.958;5.426;2023-09-12T11:47:47;101354.56;;;26.68;57.03
55763;BME280;42162;51.958;5.426;2023-09-12T11:50:28;101357.91;;;26.70;57.01
55763;BME280;42162;51.958;5.426;2023-09-12T11:53:08;101353.31;;;26.72;57.41
55763;BME280;42162;51.958;5.426;2023-09-12T11:55:45;101363.13;;;26.71;57.29
55763;BME280;42162;51.958;5.426;2023-09-12T11:58:15;101361.28;;;26.72;56.91
55763;BME280;42162;51.958;5.426;2023-09-12T12:00:51;101355.25;;;26.70;56.96
55763;BME280;42162;51.958;5.426;2023-09-12T12:03:20;101348.50;;;26.66;56.65
55763;BME280;42162;51.958;5.426;2023-09-12T12:05:48;101344.94;;;26.55;57.00
55763;BME280;42162;51.958;5.426;2023-09-12T12:08:16;101343.00;;;26.57;56.74
55763;BME280;42162;51.958;5.426;2023-09-12T12:10:53;101344.66;;;26.58;56.45
55763;BME280;42162;51.958;5.426;2023-09-12T12:13:21;101338.09;;;26.62;56.63
55763;BME280;42162;51.958;5.426;2023-09-12T12:15:50;101337.38;;;26.60;56.70
55763;BME280;42162;51.958;5.426;2023-09-12T12:18:17;101331.63;;;26.55;55.94
55763;BME280;42162;51.958;5.426;2023-09-12T12:20:45;101333.56;;;26.53;56.05
55763;BME280;42162;51.958;5.426;2023-09-12T12:23:12;101327.38;;;26.53;56.34
55763;BME280;42162;51.958;5.426;2023-09-12T12:25:39;101320.25;;;26.53;55.59
55763;BME280;42162;51.958;5.426;2023-09-12T12:28:07;101321.94;;;26.54;56.08
55763;BME280;42162;51.958;5.426;2023-09-12T12:30:35;101324.03;;;26.51;56.11
55763;BME280;42162;51.958;5.426;2023-09-12T12:33:08;101325.00;;;26.49;56.12
55763;BME280;42162;51.958;5.426;2023-09-12T12:36:05;101316.44;;;26.46;56.05
55763;BME280;42162;51.958;5.426;2023-09-12T12:38:35;101314.34;;;26.49;56.29
55763;BME280;42162;51.958;5.426;2023-09-12T12:41:25;101320.66;;;26.48;56.66
55763;BME280;42162;51.958;5.426;2023-09-12T12:44:01;101326.09;;;26.47;57.25
55763;BME280;42162;51.958;5.426;2023-09-12T12:46:30;101318.81;;;26.49;57.10
55763;BME280;42162;51.958;5.426;2023-09-12T12:48:57;101310.72;;;26.51;56.94
55763;BME280;42162;51.958;5.426;2023-09-12T12:51:24;101316.63;;;26.54;56.21
55763;BME280;42162;51.958;5.426;2023-09-12T12:53:53;101315.75;;;26.54;55.73
55763;BME280;42162;51.958;5.426;2023-09-12T12:56:27;101317.72;;;26.52;55.48
55763;BME280;42162;51.958;5.426;2023-09-12T12:58:58;101307.91;;;26.52;55.76
55763;BME280;42162;51.958;5.426;2023-09-12T13:01:29;101313.09;;;26.54;56.17
55763;BME280;42162;51.958;5.426;2023-09-12T13:03:57;101312.84;;;26.57;56.10
55763;BME280;42162;51.958;5.426;2023-09-12T13:06:24;101310.19;;;26.57;55.86
55763;BME280;42162;51.958;5.426;2023-09-12T13:08:53;101313.09;;;26.54;55.80
55763;BME280;42162;51.958;5.426;2023-09-12T13:11:20;101311.94;;;26.46;55.78
55763;BME280;42162;51.958;5.426;2023-09-12T13:13:47;101309.91;;;26.39;55.94
55763;BME280;42162;51.958;5.426;2023-09-12T13:16:18;101304.84;;;26.36;56.28
55763;BME280;42162;51.958;5.426;2023-09-12T13:18:45;101294.09;;;26.37;55.75